Time;durP1;ratioP1;P1;durP2;ratioP2;P2;SDS_P1;SDS_P2;PMS_P1;PMS_P2;Temp;Humidity;BMP_temperature;BMP_pressure;BME280_temperature;BME280_humidity;BME280_pressure;Samples;Min_cycle;Max_cycle;Signal;HPM_P1;HPM_P2
2021/05/31 00:01:38;;;;;;;0.30;0.30;;;12.30;87.80;;;;;;4430907;32;20424;-64
2021/05/31 00:04:04;;;;;;;0.30;0.30;;;12.40;87.90;;;;;;4444230;32;20128;-64
2021/05/31 00:06:40;;;;;;;3.78;0.55;;;12.30;87.60;;;;;;4445132;32;20065;-64
2021/05/31 00:09:07;;;;;;;1.52;0.37;;;12.30;88.70;;;;;;4444646;32;20089;-64
2021/05/31 00:11:32;;;;;;;0.40;0.40;;;12.30;89.50;;;;;;4430854;32;20510;-64
2021/05/31 00:13:58;;;;;;;0.22;0.22;;;12.30;89.40;;;;;;4429534;32;20061;-63
2021/05/31 00:16:23;;;;;;;0.43;0.43;;;12.20;90.00;;;;;;4428066;32;20499;-64
2021/05/31 00:18:49;;;;;;;9.00;0.77;;;11.80;90.80;;;;;;4413916;32;20070;-64
2021/05/31 00:21:16;;;;;;;3.40;0.82;;;11.60;91.60;;;;;;4429145;32;20072;-64
2021/05/31 00:23:42;;;;;;;0.62;0.62;;;11.50;92.10;;;;;;4415075;32;20078;-64
2021/05/31 00:26:08;;;;;;;0.60;0.60;;;11.40;92.30;;;;;;4427694;32;20074;-63
2021/05/31 00:28:33;;;;;;;0.50;0.45;;;11.40;92.80;;;;;;4429509;32;20070;-64
2021/05/31 00:30:58;;;;;;;0.43;0.43;;;11.40;93.40;;;;;;4427389;32;20081;-64
2021/05/31 00:33:24;;;;;;;0.20;0.20;;;11.30;93.70;;;;;;4428974;32;20074;-64
2021/05/31 00:35:49;;;;;;;0.75;0.73;;;11.30;94.30;;;;;;4428490;32;20531;-63
2021/05/31 00:38:15;;;;;;;0.30;0.30;;;11.20;95.20;;;;;;4429173;32;20412;-64
2021/05/31 00:40:40;;;;;;;0.30;0.30;;;11.00;96.00;;;;;;4429147;32;20073;-64
2021/05/31 00:43:06;;;;;;;0.30;0.30;;;11.10;96.30;;;;;;4431169;32;20721;-64
2021/05/31 00:45:31;;;;;;;0.43;0.43;;;11.20;96.60;;;;;;4445524;32;20085;-64
2021/05/31 00:47:57;;;;;;;0.30;0.30;;;11.20;97.60;;;;;;4445693;32;20065;-64
2021/05/31 00:50:23;;;;;;;0.40;0.40;;;11.20;97.90;;;;;;4446587;32;20088;-64
2021/05/31 00:52:48;;;;;;;0.40;0.40;;;11.10;99.10;;;;;;4447064;32;20068;-62
2021/05/31 00:55:14;;;;;;;0.35;0.35;;;11.10;99.10;;;;;;4448024;32;20081;-64
2021/05/31 00:57:40;;;;;;;0.20;0.20;;;11.00;99.90;;;;;;4431963;32;20573;-63
2021/05/31 01:00:07;;;;;;;0.85;0.82;;;10.90;99.90;;;;;;4446518;32;20470;-64
2021/05/31 01:02:33;;;;;;;1.30;0.40;;;10.90;99.90;;;;;;4446932;32;20093;-64
2021/05/31 01:04:59;;;;;;;0.75;0.75;;;10.80;99.90;;;;;;4431484;32;20569;-64
2021/05/31 01:07:31;;;;;;;0.37;0.37;;;10.70;99.90;;;;;;4446302;32;20128;-64
2021/05/31 01:10:17;;;;;;;0.43;0.43;;;10.80;99.90;;;;;;4433462;32;20111;-63
2021/05/31 01:13:13;;;;;;;0.43;0.43;;;10.80;99.90;;;;;;4440726;32;20065;-63
2021/05/31 01:15:45;;;;;;;0.30;0.30;;;10.50;99.90;;;;;;4419633;32;20078;-64
2021/05/31 01:18:21;;;;;;;0.20;0.20;;;10.60;99.90;;;;;;4405400;32;20070;-64
2021/05/31 01:21:26;;;;;;;3.17;1.48;;;10.50;99.90;;;;;;4417101;32;20065;-64
2021/05/31 01:24:02;;;;;;;2.12;0.37;;;10.70;99.90;;;;;;4410737;32;20400;-64
2021/05/31 01:26:52;;;;;;;0.30;0.30;;;10.90;99.90;;;;;;4417402;32;20101;-64
2021/05/31 01:29:17;;;;;;;1.87;1.30;;;10.90;99.90;;;;;;4418739;32;20065;-64
2021/05/31 01:31:50;;;;;;;0.40;0.40;;;10.80;99.90;;;;;;4430910;32;20089;-64
2021/05/31 01:34:21;;;;;;;0.30;0.30;;;10.60;99.90;;;;;;4417142;32;20412;-64
2021/05/31 01:36:52;;;;;;;0.20;0.20;;;10.50;99.90;;;;;;4431667;32;20069;-64
2021/05/31 01:39:19;;;;;;;;;;;10.60;99.90;;;;;;4417549;32;20054;-64
2021/05/31 01:41:45;;;;;;;1.45;0.90;;;10.60;99.90;;;;;;4430721;32;19952;-64
2021/05/31 01:44:14;;;;;;;0.50;0.50;;;10.60;99.90;;;;;;4440343;32;20060;-62
2021/05/31 01:46:40;;;;;;;0.30;0.30;;;10.60;99.90;;;;;;4445704;32;20435;-64
2021/05/31 01:49:06;;;;;;;0.52;0.52;;;10.50;99.90;;;;;;4446372;32;20133;-63
2021/05/31 01:51:32;;;;;;;13.45;0.50;;;10.60;99.90;;;;;;4446195;32;20141;-64
2021/05/31 01:53:59;;;;;;;0.37;0.37;;;10.50;99.90;;;;;;4431767;32;20081;-63
2021/05/31 01:56:26;;;;;;;0.20;0.20;;;10.40;99.90;;;;;;4432471;32;20065;-64
2021/05/31 01:58:53;;;;;;;0.35;0.35;;;10.40;99.90;;;;;;4446324;32;20138;-64
2021/05/31 02:01:19;;;;;;;0.43;0.43;;;10.30;99.90;;;;;;4443967;32;20495;-63
2021/05/31 02:03:44;;;;;;;0.30;0.30;;;10.10;99.90;;;;;;4445561;32;20522;-64
2021/05/31 02:06:10;;;;;;;0.30;0.30;;;10.10;99.90;;;;;;4445452;32;20073;-64
2021/05/31 02:08:36;;;;;;;0.65;0.65;;;10.20;99.90;;;;;;4445169;32;20077;-64
2021/05/31 02:11:12;;;;;;;0.30;0.30;;;10.10;99.90;;;;;;4431946;32;20130;-64
2021/05/31 02:13:40;;;;;;;0.30;0.30;;;10.10;99.90;;;;;;4433854;32;20065;-64
2021/05/31 02:16:15;;;;;;;0.30;0.30;;;10.20;99.90;;;;;;4430306;32;20070;-63
2021/05/31 02:18:44;;;;;;;0.20;0.20;;;10.30;99.90;;;;;;4430630;32;20072;-63
2021/05/31 02:21:12;;;;;;;0.32;0.32;;;10.30;99.90;;;;;;4414744;32;20121;-64
2021/05/31 02:23:40;;;;;;;0.30;0.30;;;10.20;99.90;;;;;;4404317;32;20065;-64
2021/05/31 02:26:06;;;;;;;0.55;0.35;;;10.20;99.90;;;;;;4416549;32;20164;-64
2021/05/31 02:28:32;;;;;;;1.30;0.40;;;10.30;99.90;;;;;;4430452;32;20072;-64
2021/05/31 02:31:01;;;;;;;0.30;0.30;;;10.40;99.90;;;;;;4428905;32;20125;-63
2021/05/31 02:33:27;;;;;;;0.68;0.47;;;10.40;99.90;;;;;;4430429;32;20108;-63
2021/05/31 02:35:52;;;;;;;1.37;0.60;;;10.50;99.90;;;;;;4429163;32;20068;-64
2021/05/31 02:38:18;;;;;;;7.80;0.77;;;10.40;99.90;;;;;;4430404;32;20078;-62
2021/05/31 02:40:44;;;;;;;0.40;0.40;;;10.30;99.90;;;;;;4402577;32;20090;-64
2021/05/31 02:43:10;;;;;;;0.30;0.30;;;10.30;99.90;;;;;;4432047;32;20064;-64
2021/05/31 02:45:36;;;;;;;1.00;0.55;;;10.30;99.90;;;;;;4431165;32;20501;-63
2021/05/31 02:48:04;;;;;;;0.28;0.28;;;10.30;99.90;;;;;;4431580;32;20061;-63
2021/05/31 02:50:30;;;;;;;1.75;0.47;;;10.40;99.90;;;;;;4445385;32;20082;-64
2021/05/31 02:52:57;;;;;;;0.62;0.55;;;10.40;99.90;;;;;;4445241;32;20620;-63
2021/05/31 02:55:25;;;;;;;0.28;0.28;;;10.30;99.90;;;;;;4445467;32;20077;-63
2021/05/31 02:57:51;;;;;;;0.30;0.30;;;10.10;99.90;;;;;;4444045;32;20365;-62
2021/05/31 03:00:20;;;;;;;1.00;0.50;;;10.10;99.90;;;;;;4430069;32;20073;-64
2021/05/31 03:02:46;;;;;;;0.37;0.37;;;10.00;99.90;;;;;;4446216;32;20065;-62
2021/05/31 03:05:15;;;;;;;0.40;0.40;;;9.90;99.90;;;;;;4444547;32;20069;-63
2021/05/31 03:07:41;;;;;;;0.20;0.20;;;9.90;99.90;;;;;;4430932;32;20066;-63
2021/05/31 03:10:07;;;;;;;0.50;0.50;;;10.00;99.90;;;;;;4445968;32;20080;-62
2021/05/31 03:12:32;;;;;;;1.30;1.17;;;10.00;99.90;;;;;;4439875;32;20065;-65
2021/05/31 03:14:58;;;;;;;2.08;0.60;;;10.10;99.90;;;;;;4415875;32;20064;-64
2021/05/31 03:17:24;;;;;;;1.23;0.55;;;10.00;99.90;;;;;;4416106;32;20062;-62
2021/05/31 03:19:49;;;;;;;0.40;0.40;;;10.00;99.90;;;;;;4403864;32;20193;-64
2021/05/31 03:22:15;;;;;;;0.30;0.30;;;10.10;99.90;;;;;;4428609;32;20061;-62
2021/05/31 03:24:41;;;;;;;0.70;0.60;;;10.10;99.90;;;;;;4416541;32;20061;-64
2021/05/31 03:27:07;;;;;;;0.35;0.35;;;10.10;99.90;;;;;;4401909;32;20065;-63
2021/05/31 03:29:33;;;;;;;0.30;0.30;;;10.20;99.90;;;;;;4403129;32;20065;-65
2021/05/31 03:31:59;;;;;;;0.98;0.75;;;10.20;99.90;;;;;;4429245;32;20076;-65
2021/05/31 03:34:25;;;;;;;0.30;0.30;;;10.10;99.90;;;;;;4402465;32;20141;-65
2021/05/31 03:36:51;;;;;;;0.35;0.35;;;10.00;99.90;;;;;;4414723;32;20068;-65
2021/05/31 03:39:17;;;;;;;0.45;0.45;;;10.10;99.90;;;;;;4429337;32;20170;-65
2021/05/31 03:41:42;;;;;;;1.65;0.52;;;10.10;99.90;;;;;;4428551;32;20068;-64
2021/05/31 03:44:09;;;;;;;0.65;0.52;;;10.20;99.90;;;;;;4425042;32;20120;-64
2021/05/31 03:46:35;;;;;;;0.30;0.30;;;10.40;99.90;;;;;;4430342;32;20115;-62
2021/05/31 03:49:00;;;;;;;0.30;0.30;;;10.50;99.90;;;;;;4430870;32;20076;-64
2021/05/31 03:51:25;;;;;;;0.40;0.40;;;10.50;99.90;;;;;;4444417;32;20126;-64
2021/05/31 03:53:51;;;;;;;0.30;0.30;;;10.50;99.90;;;;;;4444124;32;20082;-64
2021/05/31 03:56:17;;;;;;;0.40;0.40;;;10.50;99.90;;;;;;4444732;32;20498;-64
2021/05/31 03:58:44;;;;;;;0.30;0.30;;;10.50;99.90;;;;;;4430711;32;20072;-64
2021/05/31 04:01:11;;;;;;;0.40;0.40;;;10.30;99.90;;;;;;4430324;32;20065;-64
2021/05/31 04:03:37;;;;;;;2.35;0.55;;;10.30;99.90;;;;;;4445133;32;20124;-64
2021/05/31 04:11:48;;;;;;;0.77;0.73;;;10.50;99.90;;;;;;4431891;32;20057;-64
2021/05/31 04:14:06;;;;;;;10.52;0.65;;;10.40;99.90;;;;;;4416969;32;20081;-65
2021/05/31 04:16:32;;;;;;;0.22;0.22;;;10.30;99.90;;;;;;4415595;32;20085;-64
2021/05/31 04:18:58;;;;;;;0.20;0.20;;;10.40;99.90;;;;;;4431695;32;20061;-64
2021/05/31 04:21:24;;;;;;;0.40;0.40;;;10.40;99.90;;;;;;4424711;32;20145;-64
2021/05/31 04:23:49;;;;;;;0.70;0.62;;;10.60;99.90;;;;;;4432097;32;20475;-64
2021/05/31 04:26:15;;;;;;;0.30;0.30;;;10.80;99.90;;;;;;4427925;32;20058;-64
2021/05/31 04:28:41;;;;;;;0.20;0.20;;;10.80;99.90;;;;;;4430545;32;20617;-64
2021/05/31 04:31:07;;;;;;;0.30;0.30;;;10.90;99.90;;;;;;4404109;32;20068;-63
2021/05/31 04:33:33;;;;;;;0.37;0.37;;;11.00;99.90;;;;;;4430811;32;20133;-63
2021/05/31 04:35:59;;;;;;;1.27;0.75;;;10.90;99.90;;;;;;4430733;32;20524;-64
2021/05/31 04:38:25;;;;;;;2.60;0.40;;;11.00;99.90;;;;;;4431472;32;20578;-64
2021/05/31 04:40:51;;;;;;;0.30;0.30;;;11.10;99.90;;;;;;4425900;32;20106;-65
2021/05/31 04:43:16;;;;;;;0.37;0.37;;;11.20;99.90;;;;;;4416702;32;20066;-64
2021/05/31 04:45:41;;;;;;;0.82;0.57;;;11.20;99.90;;;;;;4401466;32;20053;-62
2021/05/31 04:48:07;;;;;;;0.30;0.30;;;11.10;99.90;;;;;;4415622;32;20109;-63
2021/05/31 04:50:33;;;;;;;1.23;0.75;;;11.10;99.90;;;;;;4415319;32;20125;-63
2021/05/31 04:52:58;;;;;;;0.30;0.30;;;11.00;99.90;;;;;;4425402;32;20551;-64
2021/05/31 04:55:24;;;;;;;0.30;0.30;;;11.00;99.90;;;;;;4431034;32;20054;-65
2021/05/31 04:57:49;;;;;;;0.32;0.32;;;11.00;99.90;;;;;;4416427;32;20112;-65
2021/05/31 05:00:16;;;;;;;0.20;0.20;;;11.00;99.90;;;;;;4427342;32;20081;-65
2021/05/31 05:02:42;;;;;;;0.52;0.52;;;11.00;99.90;;;;;;4409337;32;20608;-63
2021/05/31 05:05:08;;;;;;;0.30;0.30;;;11.00;99.90;;;;;;4401496;32;20153;-64
2021/05/31 05:07:34;;;;;;;0.30;0.30;;;11.30;99.90;;;;;;4430284;32;20054;-64
2021/05/31 05:09:59;;;;;;;0.65;0.55;;;11.40;99.90;;;;;;4445548;32;20077;-63
2021/05/31 05:12:25;;;;;;;9.32;0.82;;;11.40;99.90;;;;;;4432101;32;20124;-63
2021/05/31 05:14:50;;;;;;;0.40;0.40;;;11.40;99.90;;;;;;4415900;32;20181;-64
2021/05/31 05:17:16;;;;;;;2.60;0.88;;;11.50;99.90;;;;;;4416693;32;20082;-63
2021/05/31 05:19:42;;;;;;;0.47;0.47;;;11.70;99.90;;;;;;4411164;32;20073;-63
2021/05/31 05:22:07;;;;;;;0.70;0.70;;;11.90;99.90;;;;;;4430184;32;20065;-63
2021/05/31 05:24:33;;;;;;;0.40;0.40;;;11.80;99.90;;;;;;4439550;32;20129;-64
2021/05/31 05:27:05;;;;;;;0.73;0.40;;;11.90;99.90;;;;;;4419362;32;20094;-64
2021/05/31 05:29:31;;;;;;;0.28;0.28;;;12.00;99.90;;;;;;4420900;32;20080;-65
2021/05/31 05:31:57;;;;;;;15.80;2.22;;;12.10;99.90;;;;;;4393910;32;20073;-65
2021/05/31 05:34:23;;;;;;;1.10;0.50;;;12.20;99.90;;;;;;4408690;32;20082;-64
2021/05/31 05:36:53;;;;;;;1.25;0.80;;;12.10;99.90;;;;;;4428626;32;20089;-66
2021/05/31 05:45:04;;;;;;;0.75;0.70;;;12.40;99.90;;;;;;4412216;32;20049;-65
2021/05/31 05:49:51;;;;;;;1.90;0.85;;;12.60;99.90;;;;;;4428108;32;20574;-65
2021/05/31 05:52:17;;;;;;;0.93;0.62;;;12.60;99.90;;;;;;4414539;32;20158;-63
2021/05/31 05:54:43;;;;;;;0.25;0.25;;;12.60;99.90;;;;;;4428291;32;20078;-65
2021/05/31 05:57:09;;;;;;;0.40;0.40;;;12.60;99.90;;;;;;4422788;32;20341;-66
2021/05/31 05:59:34;;;;;;;1.37;0.50;;;12.80;99.90;;;;;;4411657;32;20065;-65
2021/05/31 06:02:00;;;;;;;0.40;0.40;;;12.90;99.90;;;;;;4427648;32;20072;-65
2021/05/31 06:04:26;;;;;;;0.40;0.40;;;12.90;99.90;;;;;;4425553;32;20073;-65
2021/05/31 06:06:51;;;;;;;0.30;0.30;;;13.00;99.90;;;;;;4413921;32;20089;-65
2021/05/31 06:09:18;;;;;;;0.35;0.35;;;13.10;99.90;;;;;;4428926;32;20086;-65
2021/05/31 06:11:44;;;;;;;0.20;0.20;;;13.10;99.90;;;;;;4428393;32;20081;-65
2021/05/31 06:14:10;;;;;;;0.20;0.20;;;13.20;99.90;;;;;;4411458;32;20185;-64
2021/05/31 06:16:36;;;;;;;0.30;0.30;;;13.30;99.90;;;;;;4411645;32;20089;-65
2021/05/31 06:19:02;;;;;;;4.70;0.47;;;13.30;99.90;;;;;;4427610;32;20112;-66
2021/05/31 06:21:28;;;;;;;0.40;0.40;;;13.50;99.90;;;;;;4413253;32;20092;-64
2021/05/31 06:23:54;;;;;;;0.25;0.25;;;13.40;99.90;;;;;;4432200;32;20065;-65
2021/05/31 06:26:20;;;;;;;0.85;0.47;;;13.40;99.90;;;;;;4416683;32;20081;-65
2021/05/31 06:28:46;;;;;;;1.02;0.50;;;13.50;99.90;;;;;;4428709;32;20070;-65
2021/05/31 06:31:11;;;;;;;0.25;0.25;;;13.60;99.90;;;;;;4427925;32;20522;-66
2021/05/31 06:33:37;;;;;;;0.80;0.55;;;13.70;99.90;;;;;;4427117;32;20073;-64
2021/05/31 06:36:06;;;;;;;0.50;0.50;;;13.70;99.90;;;;;;4426892;32;20463;-64
2021/05/31 06:38:33;;;;;;;1.30;1.10;;;13.90;99.90;;;;;;4412345;32;20584;-64
2021/05/31 06:40:59;;;;;;;0.40;0.40;;;14.00;99.90;;;;;;4412345;32;20092;-65
2021/05/31 06:43:24;;;;;;;1.00;0.88;;;14.20;99.90;;;;;;4415864;32;20073;-64
2021/05/31 06:45:50;;;;;;;0.88;0.32;;;14.20;99.90;;;;;;4396549;32;20197;-64
2021/05/31 06:48:15;;;;;;;0.45;0.45;;;14.20;99.90;;;;;;4425700;32;20518;-65
2021/05/31 06:50:43;;;;;;;0.43;0.43;;;14.30;99.90;;;;;;4423959;32;20080;-64
2021/05/31 06:53:09;;;;;;;0.50;0.35;;;14.40;99.90;;;;;;4407623;32;20232;-65
2021/05/31 06:55:35;;;;;;;0.50;0.43;;;14.40;99.90;;;;;;4423822;32;20522;-64
2021/05/31 06:58:01;;;;;;;0.30;0.30;;;14.50;99.90;;;;;;4410315;32;20097;-64
2021/05/31 07:00:28;;;;;;;0.65;0.65;;;14.50;99.90;;;;;;4410345;32;20515;-65
2021/05/31 07:02:54;;;;;;;0.62;0.62;;;14.50;99.90;;;;;;4425732;32;20561;-65
2021/05/31 07:05:20;;;;;;;1.25;1.10;;;14.60;99.90;;;;;;4410124;32;20108;-65
2021/05/31 07:07:45;;;;;;;2.90;1.30;;;14.70;99.90;;;;;;4425132;32;20069;-64
2021/05/31 07:10:14;;;;;;;0.30;0.30;;;14.90;99.90;;;;;;4425809;32;20085;-64
2021/05/31 07:12:40;;;;;;;0.40;0.40;;;14.80;99.90;;;;;;4406449;32;20094;-66
2021/05/31 07:15:07;;;;;;;0.40;0.40;;;14.90;99.90;;;;;;4411034;32;20120;-65
2021/05/31 07:17:34;;;;;;;1.95;1.30;;;15.10;99.90;;;;;;4412756;32;20118;-65
2021/05/31 07:20:00;;;;;;;1.48;0.85;;;15.20;99.90;;;;;;4410594;32;20101;-65
2021/05/31 07:22:26;;;;;;;0.30;0.30;;;15.30;99.90;;;;;;4427787;32;20089;-65
2021/05/31 07:24:52;;;;;;;0.80;0.40;;;15.40;99.90;;;;;;4425918;32;20061;-65
2021/05/31 07:27:19;;;;;;;0.60;0.60;;;15.50;99.90;;;;;;4416560;32;20411;-65
2021/05/31 07:29:45;;;;;;;0.37;0.37;;;15.60;99.90;;;;;;4419897;32;20417;-65
2021/05/31 07:32:12;;;;;;;0.45;0.45;;;15.80;99.90;;;;;;4423872;32;20085;-65
2021/05/31 07:34:38;;;;;;;0.60;0.47;;;15.80;99.90;;;;;;4408466;32;20150;-65
2021/05/31 07:37:04;;;;;;;0.30;0.30;;;15.90;99.90;;;;;;4408927;32;20506;-64
2021/05/31 07:39:30;;;;;;;0.40;0.40;;;16.10;99.90;;;;;;4423413;32;20078;-64
2021/05/31 07:41:55;;;;;;;3.58;1.05;;;16.10;99.90;;;;;;4408167;32;20070;-64
2021/05/31 07:44:21;;;;;;;0.75;0.52;;;16.30;99.90;;;;;;4426073;32;20531;-64
2021/05/31 07:46:46;;;;;;;0.32;0.32;;;16.40;99.90;;;;;;4423323;32;20174;-64
2021/05/31 07:49:12;;;;;;;0.37;0.37;;;16.60;99.90;;;;;;4410660;32;20077;-64
2021/05/31 07:51:43;;;;;;;1.40;0.80;;;16.70;99.90;;;;;;4419585;32;20097;-64
2021/05/31 07:54:08;;;;;;;0.43;0.32;;;16.90;99.90;;;;;;4419816;32;20539;-64
2021/05/31 07:56:36;;;;;;;1.77;0.75;;;17.10;99.90;;;;;;4403919;32;20182;-64
2021/05/31 07:59:02;;;;;;;0.40;0.40;;;17.20;99.50;;;;;;4410518;32;20093;-65
2021/05/31 08:01:28;;;;;;;0.30;0.30;;;17.30;99.90;;;;;;4415009;32;20065;-65
2021/05/31 08:03:54;;;;;;;0.47;0.40;;;17.30;99.20;;;;;;4405158;32;20090;-65
2021/05/31 08:06:19;;;;;;;0.85;0.40;;;17.40;99.80;;;;;;4413874;32;20313;-64
2021/05/31 08:08:45;;;;;;;0.62;0.62;;;17.50;98.50;;;;;;4422418;32;20493;-64
2021/05/31 08:11:11;;;;;;;0.55;0.55;;;17.50;98.60;;;;;;4431601;32;20196;-64
2021/05/31 08:13:37;;;;;;;0.30;0.30;;;17.60;98.70;;;;;;4425813;32;20435;-65
2021/05/31 08:16:03;;;;;;;0.32;0.32;;;17.80;98.00;;;;;;4422970;32;20128;-65
2021/05/31 08:18:29;;;;;;;0.60;0.50;;;17.70;97.60;;;;;;4409395;32;20102;-65
2021/05/31 08:20:55;;;;;;;0.40;0.40;;;17.80;98.70;;;;;;4394512;32;20069;-64
2021/05/31 08:23:20;;;;;;;2.50;0.60;;;17.90;97.30;;;;;;4407064;32;20514;-65
2021/05/31 08:25:46;;;;;;;1.15;0.73;;;17.90;97.00;;;;;;4423683;32;20074;-66
2021/05/31 08:28:12;;;;;;;0.40;0.40;;;18.10;96.70;;;;;;4408626;32;20073;-66
2021/05/31 08:30:40;;;;;;;0.90;0.70;;;18.10;96.70;;;;;;4410021;32;20089;-64
2021/05/31 08:33:07;;;;;;;0.40;0.40;;;18.20;97.00;;;;;;4430182;32;20074;-64
2021/05/31 08:35:37;;;;;;;0.57;0.57;;;18.40;96.50;;;;;;4420568;32;20404;-64
2021/05/31 08:38:03;;;;;;;0.40;0.40;;;18.40;96.80;;;;;;4419991;32;20593;-65
2021/05/31 08:40:28;;;;;;;0.60;0.60;;;18.50;95.60;;;;;;4409785;32;20093;-65
2021/05/31 08:42:54;;;;;;;0.30;0.30;;;18.40;96.40;;;;;;4407350;32;20077;-63
2021/05/31 08:45:21;;;;;;;0.90;0.80;;;18.60;94.80;;;;;;4419335;32;20198;-64
2021/05/31 08:47:49;;;;;;;0.50;0.50;;;18.70;96.00;;;;;;4407156;32;20077;-65
2021/05/31 08:50:19;;;;;;;0.50;0.50;;;18.90;96.10;;;;;;4409319;32;20058;-65
2021/05/31 08:52:46;;;;;;;0.82;0.70;;;18.90;92.70;;;;;;4421476;32;20219;-65
2021/05/31 08:55:13;;;;;;;0.20;0.20;;;18.90;93.30;;;;;;4425282;32;20068;-65
2021/05/31 08:57:39;;;;;;;0.32;0.32;;;19.00;91.90;;;;;;4430286;32;20549;-65
2021/05/31 09:00:10;;;;;;;0.40;0.40;;;19.00;94.20;;;;;;4395338;32;20089;-65
2021/05/31 09:02:36;;;;;;;;;;;19.10;91.60;;;;;;4410865;32;20109;-65
2021/05/31 09:05:03;;;;;;;0.32;0.32;;;19.30;91.10;;;;;;4425008;32;19948;-66
2021/05/31 09:07:28;;;;;;;0.30;0.30;;;19.20;89.80;;;;;;4413818;32;20057;-65
2021/05/31 09:09:54;;;;;;;0.30;0.30;;;19.30;90.70;;;;;;4427548;32;20093;-65
2021/05/31 09:12:23;;;;;;;0.30;0.25;;;19.30;90.60;;;;;;4425933;32;20084;-65
2021/05/31 09:14:56;;;;;;;0.30;0.30;;;19.40;88.00;;;;;;4422874;32;20089;-65
2021/05/31 09:17:25;;;;;;;6.37;0.85;;;19.30;88.20;;;;;;4425975;32;20526;-64
2021/05/31 09:19:50;;;;;;;0.65;0.65;;;19.30;87.10;;;;;;4426173;32;20093;-65
2021/05/31 09:22:16;;;;;;;0.20;0.20;;;19.30;83.80;;;;;;4407976;32;20077;-64
2021/05/31 09:24:54;;;;;;;0.32;0.32;;;19.30;80.10;;;;;;4410608;32;20050;-64
2021/05/31 09:27:19;;;;;;;0.30;0.30;;;19.30;79.40;;;;;;4409638;32;20602;-65
2021/05/31 09:29:54;;;;;;;0.40;0.40;;;19.40;75.80;;;;;;4422172;32;20081;-64
2021/05/31 09:32:20;;;;;;;0.43;0.43;;;19.50;80.80;;;;;;4407958;32;20104;-65
2021/05/31 09:34:56;;;;;;;0.30;0.30;;;19.40;85.40;;;;;;4422715;32;20085;-65
2021/05/31 09:37:22;;;;;;;0.50;0.50;;;19.70;83.50;;;;;;4406917;32;20062;-65
2021/05/31 09:39:58;;;;;;;0.73;0.40;;;19.80;82.30;;;;;;4422292;32;77121;-65
2021/05/31 09:42:24;;;;;;;0.57;0.57;;;19.90;80.80;;;;;;4422865;32;20074;-66
2021/05/31 09:45:08;;;;;;;0.50;0.50;;;20.00;77.60;;;;;;4410408;32;20391;-65
2021/05/31 09:47:36;;;;;;;0.30;0.30;;;20.10;80.00;;;;;;4408456;32;20457;-65
2021/05/31 09:50:05;;;;;;;0.22;0.20;;;20.10;78.30;;;;;;4421532;32;20123;-65
2021/05/31 09:52:31;;;;;;;0.90;0.52;;;20.20;79.90;;;;;;4418969;32;20112;-65
2021/05/31 09:54:57;;;;;;;0.65;0.65;;;20.00;76.50;;;;;;4410285;32;20073;-65
2021/05/31 09:57:25;;;;;;;0.30;0.30;;;20.00;79.00;;;;;;4423147;32;20085;-65
2021/05/31 10:00:07;;;;;;;0.30;0.30;;;20.30;77.50;;;;;;4422976;32;20509;-65
2021/05/31 10:02:45;;;;;;;0.30;0.30;;;20.70;76.80;;;;;;4423207;32;20073;-65
2021/05/31 10:05:57;;;;;;;0.30;0.30;;;20.90;71.40;;;;;;4397330;32;20057;-65
2021/05/31 10:08:17;;;;;;;;;;;20.80;74.80;;;;;;4419103;32;20496;-65
2021/05/31 10:10:44;;;;;;;1.98;1.02;;;21.10;76.20;;;;;;4411382;32;19952;-65
2021/05/31 10:13:10;;;;;;;0.20;0.20;;;21.10;74.70;;;;;;4409309;32;20205;-65
2021/05/31 10:15:40;;;;;;;0.32;0.32;;;21.10;75.00;;;;;;4405184;32;20093;-65
2021/05/31 10:18:12;;;;;;;0.40;0.40;;;20.90;73.40;;;;;;4404490;32;20181;-65
2021/05/31 10:20:38;;;;;;;4.37;0.55;;;21.10;73.50;;;;;;4408938;32;20151;-64
2021/05/31 10:23:05;;;;;;;0.30;0.30;;;21.10;72.70;;;;;;4423547;32;20634;-65
2021/05/31 10:25:32;;;;;;;0.30;0.30;;;21.30;75.80;;;;;;4426053;32;20141;-66
2021/05/31 10:28:20;;;;;;;0.30;0.30;;;21.50;71.70;;;;;;4414107;32;20141;-64
2021/05/31 10:30:49;;;;;;;0.37;0.37;;;21.50;70.90;;;;;;4410902;32;20054;-64
2021/05/31 10:33:21;;;;;;;0.47;0.47;;;21.70;67.00;;;;;;4415743;32;20073;-64
2021/05/31 10:35:48;;;;;;;0.50;0.50;;;22.00;65.80;;;;;;4424048;32;20078;-64
2021/05/31 10:38:18;;;;;;;0.20;0.20;;;22.30;63.80;;;;;;4411068;32;20412;-64
2021/05/31 10:40:46;;;;;;;0.20;0.20;;;22.40;63.60;;;;;;4410635;32;20430;-64
2021/05/31 10:43:15;;;;;;;1.17;0.50;;;22.90;67.20;;;;;;4424014;32;20117;-64
2021/05/31 10:45:41;;;;;;;0.25;0.25;;;23.10;63.70;;;;;;4422684;32;20093;-65
2021/05/31 10:48:17;;;;;;;0.32;0.32;;;23.20;64.20;;;;;;4412047;32;20066;-64
2021/05/31 10:50:46;;;;;;;0.20;0.20;;;23.20;60.50;;;;;;4410765;32;20165;-64
2021/05/31 10:56:02;;;;;;;2.85;1.10;;;23.50;61.30;;;;;;4422322;32;20081;-64
2021/05/31 10:58:35;;;;;;;0.40;0.40;;;23.80;61.80;;;;;;4414292;32;20115;-66
2021/05/31 11:01:08;;;;;;;0.20;0.20;;;24.10;62.20;;;;;;4412686;32;20053;-65
2021/05/31 11:04:00;;;;;;;8.10;3.20;;;24.10;58.40;;;;;;4432625;32;20123;-65
2021/05/31 11:06:28;;;;;;;0.30;0.30;;;24.20;59.40;;;;;;4414449;32;20119;-66
2021/05/31 11:08:57;;;;;;;4.30;0.65;;;24.30;55.80;;;;;;4407198;32;20141;-65
2021/05/31 11:11:26;;;;;;;0.47;0.45;;;24.50;56.20;;;;;;4409087;32;20070;-65
2021/05/31 11:13:53;;;;;;;0.80;0.50;;;24.50;53.80;;;;;;4433613;32;20089;-65
2021/05/31 11:16:19;;;;;;;0.20;0.20;;;24.60;54.40;;;;;;4408045;32;20436;-65
2021/05/31 11:18:46;;;;;;;0.15;0.15;;;24.40;54.00;;;;;;4425897;32;20090;-65
2021/05/31 11:21:37;;;;;;;0.20;0.20;;;24.50;53.10;;;;;;4418233;32;20138;-64
2021/05/31 11:24:06;;;;;;;0.20;0.20;;;24.60;50.00;;;;;;4417965;32;20436;-64
2021/05/31 11:26:35;;;;;;;0.45;0.45;;;24.60;51.20;;;;;;4411555;32;20061;-66
2021/05/31 11:29:03;;;;;;;0.88;0.37;;;25.00;51.00;;;;;;4428443;32;20084;-64
2021/05/31 11:31:28;;;;;;;0.22;0.22;;;25.10;51.80;;;;;;4410184;32;20069;-64
2021/05/31 11:33:55;;;;;;;0.30;0.20;;;25.20;50.90;;;;;;4425379;32;20677;-64
2021/05/31 11:36:31;;;;;;;0.22;0.22;;;25.30;50.00;;;;;;4407287;32;20072;-64
2021/05/31 11:39:00;;;;;;;0.68;0.55;;;25.20;52.60;;;;;;4428440;32;20077;-65
2021/05/31 11:41:31;;;;;;;0.82;0.60;;;25.80;51.20;;;;;;4426625;32;20061;-64
2021/05/31 11:43:57;;;;;;;0.45;0.35;;;25.90;51.60;;;;;;4410149;32;20058;-65
2021/05/31 11:46:22;;;;;;;0.65;0.40;;;25.80;52.90;;;;;;4420907;32;20133;-66
2021/05/31 11:48:48;;;;;;;0.10;0.10;;;25.50;50.30;;;;;;4409342;32;20060;-65
2021/05/31 11:51:15;;;;;;;0.62;0.43;;;25.60;49.60;;;;;;4422735;32;20113;-66
2021/05/31 11:53:45;;;;;;;0.10;0.10;;;25.80;49.30;;;;;;4412259;32;20128;-66
2021/05/31 11:56:11;;;;;;;0.47;0.35;;;26.30;47.10;;;;;;4412303;32;20522;-65
2021/05/31 11:58:41;;;;;;;0.28;0.28;;;26.20;46.40;;;;;;4431195;32;20074;-65
2021/05/31 12:01:10;;;;;;;0.20;0.20;;;26.60;48.50;;;;;;4398090;32;20081;-65
2021/05/31 12:03:37;;;;;;;0.00;0.00;;;26.80;47.30;;;;;;4413747;32;20589;-66
2021/05/31 12:06:12;;;;;;;0.05;0.05;;;27.20;46.20;;;;;;4412936;32;20081;-65
2021/05/31 12:08:37;;;;;;;0.28;0.13;;;27.50;47.30;;;;;;4411732;32;20078;-66
2021/05/31 12:11:03;;;;;;;0.10;0.10;;;27.60;46.60;;;;;;4397942;32;20062;-66
2021/05/31 12:13:30;;;;;;;0.80;0.10;;;27.60;45.90;;;;;;4401108;32;20073;-65
2021/05/31 12:15:56;;;;;;;0.10;0.10;;;27.60;46.50;;;;;;4400004;32;20428;-65
2021/05/31 12:18:24;;;;;;;0.13;0.13;;;27.80;46.60;;;;;;4411667;32;20064;-65
2021/05/31 12:20:57;;;;;;;2.55;0.77;;;28.10;46.20;;;;;;4422181;32;20526;-66
2021/05/31 12:23:23;;;;;;;0.10;0.10;;;27.40;45.00;;;;;;4419588;32;20074;-66
2021/05/31 12:25:50;;;;;;;0.10;0.10;;;27.60;44.20;;;;;;4426380;32;20066;-66
2021/05/31 12:28:18;;;;;;;0.20;0.08;;;27.60;44.90;;;;;;4413620;32;20455;-66
2021/05/31 12:30:45;;;;;;;0.10;0.10;;;28.20;45.30;;;;;;4409489;32;20149;-66
2021/05/31 12:33:12;;;;;;;0.20;0.20;;;28.90;43.80;;;;;;4411387;32;20061;-66
2021/05/31 12:35:38;;;;;;;0.00;0.00;;;29.00;40.90;;;;;;4418626;32;20058;-67
2021/05/31 12:38:04;;;;;;;0.37;0.03;;;29.50;39.80;;;;;;4434992;32;20664;-66
2021/05/31 12:40:34;;;;;;;1.00;0.35;;;29.60;40.70;;;;;;4438314;32;20122;-64
2021/05/31 12:43:00;;;;;;;0.95;0.52;;;29.00;40.70;;;;;;4434103;32;20499;-66
2021/05/31 12:45:26;;;;;;;0.10;0.10;;;29.20;40.90;;;;;;4434099;32;20065;-66
2021/05/31 12:47:53;;;;;;;0.00;0.00;;;29.30;38.90;;;;;;4428457;32;20069;-66
2021/05/31 12:50:30;;;;;;;0.98;0.55;;;29.40;40.80;;;;;;4431255;32;20432;-66
2021/05/31 12:53:03;;;;;;;0.15;0.15;;;29.60;39.80;;;;;;4413540;32;20058;-66
2021/05/31 12:55:30;;;;;;;0.10;0.10;;;30.00;39.80;;;;;;4438031;32;20127;-66
2021/05/31 12:57:55;;;;;;;0.17;0.17;;;29.50;40.20;;;;;;4431438;32;20078;-65
2021/05/31 13:00:23;;;;;;;0.10;0.10;;;29.80;39.70;;;;;;4416735;32;20077;-65
2021/05/31 13:02:53;;;;;;;0.15;0.10;;;30.10;38.50;;;;;;4414126;32;20081;-65
2021/05/31 13:05:21;;;;;;;0.65;0.32;;;29.80;38.30;;;;;;4412391;32;20061;-64
2021/05/31 13:07:48;;;;;;;0.10;0.10;;;29.30;41.10;;;;;;4416957;32;20089;-65